sensor_id;sensor_type;location;lat;lon;timestamp;pressure;altitude;pressure_sealevel;temperature;humidity
61394;BME280;48555;50.952;-0.120;2023-04-04T00:01:56;102325.19;;;6.36;56.71
61394;BME280;48555;50.952;-0.120;2023-04-04T00:04:24;102321.00;;;6.32;56.50
61394;BME280;48555;50.952;-0.120;2023-04-04T00:06:50;102315.00;;;6.29;56.59
61394;BME280;48555;50.952;-0.120;2023-04-04T00:09:16;102320.28;;;6.26;56.40
61394;BME280;48555;50.952;-0.120;2023-04-04T00:11:41;102315.25;;;6.21;56.65
61394;BME280;48555;50.952;-0.120;2023-04-04T00:14:06;102317.13;;;6.16;56.68
61394;BME280;48555;50.952;-0.120;2023-04-04T00:16:32;102313.69;;;6.14;56.58
61394;BME280;48555;50.952;-0.120;2023-04-04T00:18:58;102312.09;;;6.10;56.77
61394;BME280;48555;50.952;-0.120;2023-04-04T00:21:23;102310.47;;;6.06;56.61
61394;BME280;48555;50.952;-0.120;2023-04-04T00:23:49;102307.91;;;6.04;56.66
61394;BME280;48555;50.952;-0.120;2023-04-04T00:26:14;102311.41;;;6.03;57.00
61394;BME280;48555;50.952;-0.120;2023-04-04T00:28:41;102308.94;;;5.99;56.94
61394;BME280;48555;50.952;-0.120;2023-04-04T00:31:06;102309.00;;;5.97;56.82
61394;BME280;48555;50.952;-0.120;2023-04-04T00:33:32;102300.44;;;5.92;57.16
61394;BME280;48555;50.952;-0.120;2023-04-04T00:35:57;102293.53;;;5.91;57.07
61394;BME280;48555;50.952;-0.120;2023-04-04T00:38:23;102290.06;;;5.90;57.12
61394;BME280;48555;50.952;-0.120;2023-04-04T00:40:49;102295.34;;;5.89;57.32
61394;BME280;48555;50.952;-0.120;2023-04-04T00:43:16;102291.06;;;5.86;57.03
61394;BME280;48555;50.952;-0.120;2023-04-04T00:45:42;102286.72;;;5.87;57.14
61394;BME280;48555;50.952;-0.120;2023-04-04T00:48:07;102294.56;;;5.85;56.74
61394;BME280;48555;50.952;-0.120;2023-04-04T00:50:33;102287.72;;;5.83;57.07
61394;BME280;48555;50.952;-0.120;2023-04-04T00:52:59;102296.44;;;5.79;57.18
61394;BME280;48555;50.952;-0.120;2023-04-04T00:55:24;102300.78;;;5.80;57.26
61394;BME280;48555;50.952;-0.120;2023-04-04T00:57:50;102299.19;;;5.74;57.31
61394;BME280;48555;50.952;-0.120;2023-04-04T01:00:16;102297.59;;;5.68;57.31
61394;BME280;48555;50.952;-0.120;2023-04-04T01:02:42;102286.47;;;5.65;57.34
61394;BME280;48555;50.952;-0.120;2023-04-04T01:05:07;102289.13;;;5.62;57.55
61394;BME280;48555;50.952;-0.120;2023-04-04T01:07:34;102286.56;;;5.60;57.65
61394;BME280;48555;50.952;-0.120;2023-04-04T01:10:00;102282.44;;;5.53;57.79
61394;BME280;48555;50.952;-0.120;2023-04-04T01:12:28;102277.34;;;5.49;57.91
61394;BME280;48555;50.952;-0.120;2023-04-04T01:14:53;102264.72;;;5.36;58.15
61394;BME280;48555;50.952;-0.120;2023-04-04T01:17:19;102266.03;;;5.17;58.74
61394;BME280;48555;50.952;-0.120;2023-04-04T01:19:51;102267.19;;;5.07;59.14
61394;BME280;48555;50.952;-0.120;2023-04-04T01:22:18;102257.06;;;4.96;59.18
61394;BME280;48555;50.952;-0.120;2023-04-04T01:24:45;102250.31;;;4.89;59.43
61394;BME280;48555;50.952;-0.120;2023-04-04T01:27:11;102241.75;;;4.85;59.44
61394;BME280;48555;50.952;-0.120;2023-04-04T01:29:37;102244.41;;;4.82;59.40
61394;BME280;48555;50.952;-0.120;2023-04-04T01:32:14;102236.63;;;4.82;59.56
61394;BME280;48555;50.952;-0.120;2023-04-04T01:40:15;102233.25;;;4.80;59.53
61394;BME280;48555;50.952;-0.120;2023-04-04T01:42:43;102230.72;;;4.77;59.79
61394;BME280;48555;50.952;-0.120;2023-04-04T01:45:09;102226.56;;;4.70;59.75
61394;BME280;48555;50.952;-0.120;2023-04-04T01:47:40;102226.63;;;4.67;59.76
61394;BME280;48555;50.952;-0.120;2023-04-04T01:50:07;102227.47;;;4.67;60.16
61394;BME280;48555;50.952;-0.120;2023-04-04T01:52:33;102227.56;;;4.64;60.10
61394;BME280;48555;50.952;-0.120;2023-04-04T01:54:59;102231.88;;;4.64;60.02
61394;BME280;48555;50.952;-0.120;2023-04-04T01:57:24;102228.44;;;4.65;60.08
61394;BME280;48555;50.952;-0.120;2023-04-04T01:59:49;102231.06;;;4.62;60.24
61394;BME280;48555;50.952;-0.120;2023-04-04T02:02:15;102236.22;;;4.63;60.22
61394;BME280;48555;50.952;-0.120;2023-04-04T02:04:40;102230.16;;;4.64;60.42
61394;BME280;48555;50.952;-0.120;2023-04-04T02:07:06;102232.72;;;4.64;60.24
61394;BME280;48555;50.952;-0.120;2023-04-04T02:09:32;102231.66;;;4.73;60.11
61394;BME280;48555;50.952;-0.120;2023-04-04T02:11:58;102241.09;;;4.77;60.18
61394;BME280;48555;50.952;-0.120;2023-04-04T02:14:24;102231.66;;;4.74;60.05
61394;BME280;48555;50.952;-0.120;2023-04-04T02:16:49;102237.59;;;4.78;59.72
61394;BME280;48555;50.952;-0.120;2023-04-04T02:19:14;102236.69;;;4.81;60.12
61394;BME280;48555;50.952;-0.120;2023-04-04T02:21:40;102234.09;;;4.81;59.98
61394;BME280;48555;50.952;-0.120;2023-04-04T02:24:05;102239.19;;;4.84;60.01
61394;BME280;48555;50.952;-0.120;2023-04-04T02:26:31;102243.47;;;4.86;60.21
61394;BME280;48555;50.952;-0.120;2023-04-04T02:28:56;102240.03;;;4.86;60.32
61394;BME280;48555;50.952;-0.120;2023-04-04T02:31:22;102226.19;;;4.85;60.12
61394;BME280;48555;50.952;-0.120;2023-04-04T02:33:47;102232.25;;;4.86;60.17
61394;BME280;48555;50.952;-0.120;2023-04-04T02:36:12;102234.03;;;4.84;60.25
61394;BME280;48555;50.952;-0.120;2023-04-04T02:38:38;102234.03;;;4.84;60.58
61394;BME280;48555;50.952;-0.120;2023-04-04T02:41:03;102234.03;;;4.84;60.52
61394;BME280;48555;50.952;-0.120;2023-04-04T02:43:29;102239.13;;;4.87;60.48
61394;BME280;48555;50.952;-0.120;2023-04-04T02:45:54;102235.69;;;4.86;60.65
61394;BME280;48555;50.952;-0.120;2023-04-04T02:48:20;102245.22;;;4.84;60.51
61394;BME280;48555;50.952;-0.120;2023-04-04T02:50:45;102240.03;;;4.86;60.36
61394;BME280;48555;50.952;-0.120;2023-04-04T02:53:12;102238.22;;;4.88;60.40
61394;BME280;48555;50.952;-0.120;2023-04-04T02:55:37;102235.56;;;4.91;60.48
61394;BME280;48555;50.952;-0.120;2023-04-04T02:58:03;102241.56;;;4.94;60.58
61394;BME280;48555;50.952;-0.120;2023-04-04T03:00:28;102239.91;;;4.90;60.43
61394;BME280;48555;50.952;-0.120;2023-04-04T03:02:54;102245.22;;;4.86;60.46
61394;BME280;48555;50.952;-0.120;2023-04-04T03:05:20;102232.28;;;4.84;60.63
61394;BME280;48555;50.952;-0.120;2023-04-04T03:07:46;102238.31;;;4.85;60.76
61394;BME280;48555;50.952;-0.120;2023-04-04T03:10:11;102235.75;;;4.83;60.47
61394;BME280;48555;50.952;-0.120;2023-04-04T03:12:36;102231.53;;;4.79;60.57
61394;BME280;48555;50.952;-0.120;2023-04-04T03:15:05;102221.44;;;4.68;60.59
61394;BME280;48555;50.952;-0.120;2023-04-04T03:17:31;102225.88;;;4.62;60.75
61394;BME280;48555;50.952;-0.120;2023-04-04T03:19:56;102220.91;;;4.54;60.87
61394;BME280;48555;50.952;-0.120;2023-04-04T03:22:21;102227.00;;;4.51;61.07
61394;BME280;48555;50.952;-0.120;2023-04-04T03:24:47;102231.34;;;4.49;61.08
61394;BME280;48555;50.952;-0.120;2023-04-04T03:27:12;102231.31;;;4.51;60.89
61394;BME280;48555;50.952;-0.120;2023-04-04T03:29:37;102235.59;;;4.52;60.85
61394;BME280;48555;50.952;-0.120;2023-04-04T03:32:03;102235.59;;;4.52;61.11
61394;BME280;48555;50.952;-0.120;2023-04-04T03:34:28;102235.66;;;4.50;61.16
61394;BME280;48555;50.952;-0.120;2023-04-04T03:36:53;102227.13;;;4.45;61.04
61394;BME280;48555;50.952;-0.120;2023-04-04T03:39:19;102240.16;;;4.42;60.82
61394;BME280;48555;50.952;-0.120;2023-04-04T03:41:45;102233.44;;;4.33;61.02
61394;BME280;48555;50.952;-0.120;2023-04-04T03:44:10;102240.31;;;4.35;61.38
61394;BME280;48555;50.952;-0.120;2023-04-04T03:46:35;102235.19;;;4.33;61.23
61394;BME280;48555;50.952;-0.120;2023-04-04T03:49:01;102242.13;;;4.31;61.31
61394;BME280;48555;50.952;-0.120;2023-04-04T03:51:26;102244.72;;;4.31;61.37
61394;BME280;48555;50.952;-0.120;2023-04-04T03:53:52;102236.94;;;4.31;61.38
61394;BME280;48555;50.952;-0.120;2023-04-04T03:56:17;102237.78;;;4.31;61.19
61394;BME280;48555;50.952;-0.120;2023-04-04T03:58:43;102232.72;;;4.27;61.17
61394;BME280;48555;50.952;-0.120;2023-04-04T04:01:09;102237.00;;;4.28;61.31
61394;BME280;48555;50.952;-0.120;2023-04-04T04:03:35;102226.66;;;4.28;61.24
61394;BME280;48555;50.952;-0.120;2023-04-04T04:06:01;102224.91;;;4.28;61.30
61394;BME280;48555;50.952;-0.120;2023-04-04T04:08:26;102226.56;;;4.31;61.46
61394;BME280;48555;50.952;-0.120;2023-04-04T04:10:52;102219.78;;;4.27;61.44
61394;BME280;48555;50.952;-0.120;2023-04-04T04:13:18;102231.69;;;4.36;61.54
61394;BME280;48555;50.952;-0.120;2023-04-04T04:15:44;102235.97;;;4.35;61.41
61394;BME280;48555;50.952;-0.120;2023-04-04T04:18:09;102236.84;;;4.36;61.64
61394;BME280;48555;50.952;-0.120;2023-04-04T04:20:35;102244.63;;;4.34;61.53
61394;BME280;48555;50.952;-0.120;2023-04-04T04:23:00;102236.03;;;4.33;61.46
61394;BME280;48555;50.952;-0.120;2023-04-04T04:25:25;102244.63;;;4.34;61.68
61394;BME280;48555;50.952;-0.120;2023-04-04T04:27:54;102235.19;;;4.31;61.20
61394;BME280;48555;50.952;-0.120;2023-04-04T04:30:20;102246.38;;;4.33;61.35
61394;BME280;48555;50.952;-0.120;2023-04-04T04:32:48;102248.25;;;4.27;61.47
61394;BME280;48555;50.952;-0.120;2023-04-04T04:35:14;102255.97;;;4.30;61.77
61394;BME280;48555;50.952;-0.120;2023-04-04T04:37:39;102257.66;;;4.31;61.71
61394;BME280;48555;50.952;-0.120;2023-04-04T04:40:05;102258.47;;;4.33;61.73
61394;BME280;48555;50.952;-0.120;2023-04-04T04:42:31;102246.53;;;4.26;61.79
61394;BME280;48555;50.952;-0.120;2023-04-04T04:44:56;102256.03;;;4.25;61.96
61394;BME280;48555;50.952;-0.120;2023-04-04T04:47:21;102244.06;;;4.21;61.61
61394;BME280;48555;50.952;-0.120;2023-04-04T04:49:47;102247.44;;;4.23;61.73
61394;BME280;48555;50.952;-0.120;2023-04-04T04:52:14;102246.66;;;4.21;61.92
61394;BME280;48555;50.952;-0.120;2023-04-04T04:54:39;102238.84;;;4.23;61.85
61394;BME280;48555;50.952;-0.120;2023-04-04T04:57:04;102249.03;;;4.30;61.87
61394;BME280;48555;50.952;-0.120;2023-04-04T04:59:30;102250.72;;;4.33;61.91
61394;BME280;48555;50.952;-0.120;2023-04-04T05:01:56;102263.53;;;4.38;61.67
61394;BME280;48555;50.952;-0.120;2023-04-04T05:04:21;102238.69;;;4.30;61.50
61394;BME280;48555;50.952;-0.120;2023-04-04T05:06:46;102264.38;;;4.41;61.56
61394;BME280;48555;50.952;-0.120;2023-04-04T05:09:13;102265.28;;;4.39;61.92
61394;BME280;48555;50.952;-0.120;2023-04-04T05:11:38;102266.13;;;4.39;62.02
61394;BME280;48555;50.952;-0.120;2023-04-04T05:14:04;102256.75;;;4.32;61.84
61394;BME280;48555;50.952;-0.120;2023-04-04T05:16:30;102268.78;;;4.35;61.86
61394;BME280;48555;50.952;-0.120;2023-04-04T05:18:55;102267.09;;;4.33;61.98
61394;BME280;48555;50.952;-0.120;2023-04-04T05:21:20;102265.44;;;4.31;61.85
61394;BME280;48555;50.952;-0.120;2023-04-04T05:23:46;102265.56;;;4.25;61.77
61394;BME280;48555;50.952;-0.120;2023-04-04T05:26:12;102265.50;;;4.28;62.08
61394;BME280;48555;50.952;-0.120;2023-04-04T05:28:37;102268.97;;;4.27;61.95
61394;BME280;48555;50.952;-0.120;2023-04-04T05:31:04;102262.31;;;4.15;61.87
61394;BME280;48555;50.952;-0.120;2023-04-04T05:33:29;102260.81;;;4.03;62.34
61394;BME280;48555;50.952;-0.120;2023-04-04T05:35:55;102257.53;;;3.94;62.57
61394;BME280;48555;50.952;-0.120;2023-04-04T05:38:20;102262.53;;;4.03;62.27
61394;BME280;48555;50.952;-0.120;2023-04-04T05:40:46;102262.41;;;4.10;62.30
61394;BME280;48555;50.952;-0.120;2023-04-04T05:43:11;102264.03;;;4.15;62.27
61394;BME280;48555;50.952;-0.120;2023-04-04T05:45:37;102266.56;;;4.18;62.43
61394;BME280;48555;50.952;-0.120;2023-04-04T05:48:02;102266.31;;;4.30;62.27
61394;BME280;48555;50.952;-0.120;2023-04-04T05:50:28;102267.66;;;4.48;62.08
61394;BME280;48555;50.952;-0.120;2023-04-04T05:52:54;102266.47;;;4.63;62.04
61394;BME280;48555;50.952;-0.120;2023-04-04T05:55:21;102257.28;;;4.87;62.40
61394;BME280;48555;50.952;-0.120;2023-04-04T05:57:50;102257.31;;;5.21;62.40
61394;BME280;48555;50.952;-0.120;2023-04-04T06:00:17;102245.28;;;5.51;62.17
61394;BME280;48555;50.952;-0.120;2023-04-04T06:02:43;102251.63;;;6.05;62.25
61394;BME280;48555;50.952;-0.120;2023-04-04T06:05:09;102265.59;;;6.60;62.12
61394;BME280;48555;50.952;-0.120;2023-04-04T06:07:35;102267.34;;;7.14;61.64
61394;BME280;48555;50.952;-0.120;2023-04-04T06:10:00;102270.78;;;7.66;60.85
61394;BME280;48555;50.952;-0.120;2023-04-04T06:12:25;102271.66;;;8.14;60.05
61394;BME280;48555;50.952;-0.120;2023-04-04T06:14:51;102275.47;;;8.52;59.31
61394;BME280;48555;50.952;-0.120;2023-04-04T06:17:17;102274.94;;;8.88;58.50
61394;BME280;48555;50.952;-0.120;2023-04-04T06:19:42;102275.13;;;9.26;57.44
61394;BME280;48555;50.952;-0.120;2023-04-04T06:22:07;102282.41;;;9.60;56.18
61394;BME280;48555;50.952;-0.120;2023-04-04T06:24:33;102282.16;;;9.85;55.15
61394;BME280;48555;50.952;-0.120;2023-04-04T06:26:58;102294.06;;;10.11;54.91
61394;BME280;48555;50.952;-0.120;2023-04-04T06:29:23;102297.03;;;10.43;53.79
61394;BME280;48555;50.952;-0.120;2023-04-04T06:31:50;102294.59;;;10.76;53.06
61394;BME280;48555;50.952;-0.120;2023-04-04T06:34:15;102293.75;;;11.12;52.24
61394;BME280;48555;50.952;-0.120;2023-04-04T06:36:40;102298.06;;;11.48;51.14
61394;BME280;48555;50.952;-0.120;2023-04-04T06:39:06;102287.09;;;11.74;49.92
61394;BME280;48555;50.952;-0.120;2023-04-04T06:41:32;102312.78;;;12.18;49.23
61394;BME280;48555;50.952;-0.120;2023-04-04T06:43:57;102315.28;;;12.53;48.22
61394;BME280;48555;50.952;-0.120;2023-04-04T06:46:23;102314.25;;;12.87;47.42
61394;BME280;48555;50.952;-0.120;2023-04-04T06:48:49;102306.50;;;13.16;46.44
61394;BME280;48555;50.952;-0.120;2023-04-04T06:51:14;102312.16;;;13.54;45.72
61394;BME280;48555;50.952;-0.120;2023-04-04T06:53:40;102311.38;;;13.82;44.74
61394;BME280;48555;50.952;-0.120;2023-04-04T06:56:05;102310.53;;;14.11;43.86
61394;BME280;48555;50.952;-0.120;2023-04-04T06:58:31;102308.25;;;14.33;42.91
61394;BME280;48555;50.952;-0.120;2023-04-04T07:00:56;102310.13;;;14.60;42.79
61394;BME280;48555;50.952;-0.120;2023-04-04T07:03:24;102318.03;;;14.87;42.13
61394;BME280;48555;50.952;-0.120;2023-04-04T07:05:49;102314.81;;;15.09;40.98
61394;BME280;48555;50.952;-0.120;2023-04-04T07:08:15;102318.78;;;15.29;40.82
61394;BME280;48555;50.952;-0.120;2023-04-04T07:10:40;102324.63;;;15.47;40.05
61394;BME280;48555;50.952;-0.120;2023-04-04T07:13:06;102320.31;;;15.58;39.41
61394;BME280;48555;50.952;-0.120;2023-04-04T07:15:31;102310.03;;;15.68;39.31
61394;BME280;48555;50.952;-0.120;2023-04-04T07:17:56;102313.91;;;15.75;38.43
61394;BME280;48555;50.952;-0.120;2023-04-04T07:20:22;102305.38;;;15.84;38.55
61394;BME280;48555;50.952;-0.120;2023-04-04T07:22:47;102297.16;;;15.89;38.10
61394;BME280;48555;50.952;-0.120;2023-04-04T07:25:13;102303.69;;;15.96;37.23
61394;BME280;48555;50.952;-0.120;2023-04-04T07:27:38;102298.00;;;15.89;37.37
61394;BME280;48555;50.952;-0.120;2023-04-04T07:30:05;102304.00;;;15.92;37.26
61394;BME280;48555;50.952;-0.120;2023-04-04T07:32:31;102298.53;;;15.95;37.28
61394;BME280;48555;50.952;-0.120;2023-04-04T07:34:56;102304.63;;;15.95;36.94
61394;BME280;48555;50.952;-0.120;2023-04-04T07:37:22;102297.56;;;15.96;37.41
61394;BME280;48555;50.952;-0.120;2023-04-04T07:39:47;102291.22;;;15.98;37.37
61394;BME280;48555;50.952;-0.120;2023-04-04T07:42:16;102297.13;;;16.02;37.44
61394;BME280;48555;50.952;-0.120;2023-04-04T07:44:47;102302.31;;;16.03;37.30
61394;BME280;48555;50.952;-0.120;2023-04-04T07:47:12;102296.69;;;16.08;37.87
61394;BME280;48555;50.952;-0.120;2023-04-04T07:49:38;102303.34;;;16.13;37.62
61394;BME280;48555;50.952;-0.120;2023-04-04T07:52:03;102295.34;;;16.15;38.13
61394;BME280;48555;50.952;-0.120;2023-04-04T07:54:29;102284.03;;;16.13;38.08
61394;BME280;48555;50.952;-0.120;2023-04-04T07:56:55;102293.00;;;16.10;38.31
61394;BME280;48555;50.952;-0.120;2023-04-04T07:59:20;102295.31;;;15.64;37.48
61394;BME280;48555;50.952;-0.120;2023-04-04T08:01:46;102298.56;;;14.89;38.44
61394;BME280;48555;50.952;-0.120;2023-04-04T08:04:11;102307.50;;;14.31;39.19
61394;BME280;48555;50.952;-0.120;2023-04-04T08:06:36;102305.44;;;13.79;40.50
61394;BME280;48555;50.952;-0.120;2023-04-04T08:09:02;102293.59;;;13.57;41.29
61394;BME280;48555;50.952;-0.120;2023-04-04T08:11:29;102296.13;;;13.59;42.08
61394;BME280;48555;50.952;-0.120;2023-04-04T08:13:54;102279.22;;;13.49;42.02
61394;BME280;48555;50.952;-0.120;2023-04-04T08:16:19;102296.47;;;13.23;42.43
61394;BME280;48555;50.952;-0.120;2023-04-04T08:18:45;102292.72;;;12.96;43.07
61394;BME280;48555;50.952;-0.120;2023-04-04T08:21:10;102286.16;;;12.58;43.89
61394;BME280;48555;50.952;-0.120;2023-04-04T08:23:36;102284.88;;;12.49;44.70
61394;BME280;48555;50.952;-0.120;2023-04-04T08:26:01;102283.34;;;12.29;45.32
61394;BME280;48555;50.952;-0.120;2023-04-04T08:28:26;102281.91;;;12.39;45.49
61394;BME280;48555;50.952;-0.120;2023-04-04T08:30:52;102284.13;;;12.31;45.52
61394;BME280;48555;50.952;-0.120;2023-04-04T08:33:20;102281.81;;;12.25;45.72
61394;BME280;48555;50.952;-0.120;2023-04-04T08:35:45;102286.91;;;12.44;45.80
61394;BME280;48555;50.952;-0.120;2023-04-04T08:38:11;102275.81;;;12.55;45.97
61394;BME280;48555;50.952;-0.120;2023-04-04T08:40:36;102282.00;;;12.54;46.04
61394;BME280;48555;50.952;-0.120;2023-04-04T08:43:03;102285.38;;;12.40;45.86
61394;BME280;48555;50.952;-0.120;2023-04-04T08:45:30;102276.22;;;12.47;46.16
61394;BME280;48555;50.952;-0.120;2023-04-04T08:47:57;102285.50;;;12.38;46.03
61394;BME280;48555;50.952;-0.120;2023-04-04T08:50:26;102278.19;;;12.27;46.21
61394;BME280;48555;50.952;-0.120;2023-04-04T08:52:53;102282.00;;;12.22;46.37
61394;BME280;48555;50.952;-0.120;2023-04-04T08:55:19;102283.91;;;12.02;46.76
61394;BME280;48555;50.952;-0.120;2023-04-04T08:57:45;102276.81;;;12.20;47.13
61394;BME280;48555;50.952;-0.120;2023-04-04T09:00:11;102281.91;;;12.39;46.59
61394;BME280;48555;50.952;-0.120;2023-04-04T09:03:35;102287.06;;;12.41;45.23
61394;BME280;48555;50.952;-0.120;2023-04-04T09:05:42;102278.97;;;12.45;45.18
61394;BME280;48555;50.952;-0.120;2023-04-04T09:08:08;102276.31;;;12.61;45.26
61394;BME280;48555;50.952;-0.120;2023-04-04T09:10:35;102283.84;;;12.83;45.18
61394;BME280;48555;50.952;-0.120;2023-04-04T09:13:02;102284.47;;;13.03;45.37
61394;BME280;48555;50.952;-0.120;2023-04-04T09:15:28;102282.41;;;13.24;44.63
61394;BME280;48555;50.952;-0.120;2023-04-04T09:17:54;102285.81;;;13.26;44.20
61394;BME280;48555;50.952;-0.120;2023-04-04T09:20:39;102283.88;;;13.13;44.70
61394;BME280;48555;50.952;-0.120;2023-04-04T09:23:07;102278.84;;;13.25;45.09
61394;BME280;48555;50.952;-0.120;2023-04-04T09:25:34;102285.28;;;13.35;45.11
61394;BME280;48555;50.952;-0.120;2023-04-04T09:28:01;102288.66;;;13.37;45.11
61394;BME280;48555;50.952;-0.120;2023-04-04T09:30:27;102278.25;;;13.50;44.92
61394;BME280;48555;50.952;-0.120;2023-04-04T09:32:53;102287.56;;;13.55;44.03
61394;BME280;48555;50.952;-0.120;2023-04-04T09:35:19;102287.97;;;13.63;43.10
61394;BME280;48555;50.952;-0.120;2023-04-04T09:37:44;102288.16;;;13.60;43.44
61394;BME280;48555;50.952;-0.120;2023-04-04T09:40:11;102289.56;;;13.66;43.46
61394;BME280;48555;50.952;-0.120;2023-04-04T09:42:37;102287.00;;;13.64;43.50
61394;BME280;48555;50.952;-0.120;2023-04-04T09:45:03;102286.09;;;13.80;43.79
61394;BME280;48555;50.952;-0.120;2023-04-04T09:47:29;102293.50;;;13.88;42.60
61394;BME280;48555;50.952;-0.120;2023-04-04T09:50:00;102283.16;;;13.70;41.66
61394;BME280;48555;50.952;-0.120;2023-04-04T09:52:26;102289.28;;;13.71;41.98
61394;BME280;48555;50.952;-0.120;2023-04-04T09:54:58;102281.84;;;13.63;42.10
61394;BME280;48555;50.952;-0.120;2023-04-04T09:57:26;102289.75;;;13.63;41.63
61394;BME280;48555;50.952;-0.120;2023-04-04T09:59:56;102283.84;;;13.59;41.11
61394;BME280;48555;50.952;-0.120;2023-04-04T10:02:21;102272.34;;;13.46;42.01
61394;BME280;48555;50.952;-0.120;2023-04-04T10:04:47;102265.13;;;13.35;42.55
61394;BME280;48555;50.952;-0.120;2023-04-04T10:07:12;102269.13;;;13.41;43.02
61394;BME280;48555;50.952;-0.120;2023-04-04T10:09:39;102256.66;;;13.30;43.14
61394;BME280;48555;50.952;-0.120;2023-04-04T10:12:08;102262.09;;;13.27;42.70
61394;BME280;48555;50.952;-0.120;2023-04-04T10:14:34;102263.09;;;13.25;42.61
61394;BME280;48555;50.952;-0.120;2023-04-04T10:17:00;102273.31;;;12.99;43.03
61394;BME280;48555;50.952;-0.120;2023-04-04T10:19:25;102266.38;;;12.98;43.61
61394;BME280;48555;50.952;-0.120;2023-04-04T10:21:52;102262.91;;;12.98;43.76
61394;BME280;48555;50.952;-0.120;2023-04-04T10:24:18;102254.09;;;12.99;43.79
61394;BME280;48555;50.952;-0.120;2023-04-04T10:26:43;102248.41;;;13.06;43.37
61394;BME280;48555;50.952;-0.120;2023-04-04T10:29:09;102257.69;;;13.28;43.15
61394;BME280;48555;50.952;-0.120;2023-04-04T10:31:37;102255.19;;;13.55;43.26
61394;BME280;48555;50.952;-0.120;2023-04-04T10:37:17;102252.94;;;14.06;42.73
61394;BME280;48555;50.952;-0.120;2023-04-04T10:40:04;102248.03;;;14.14;40.76
61394;BME280;48555;50.952;-0.120;2023-04-04T10:42:37;102247.00;;;14.02;40.57
61394;BME280;48555;50.952;-0.120;2023-04-04T10:45:06;102247.56;;;14.07;40.53
61394;BME280;48555;50.952;-0.120;2023-04-04T10:47:33;102248.03;;;14.14;40.64
61394;BME280;48555;50.952;-0.120;2023-04-04T10:50:00;102245.13;;;14.19;40.13
61394;BME280;48555;50.952;-0.120;2023-04-04T10:52:27;102242.66;;;14.30;40.41
61394;BME280;48555;50.952;-0.120;2023-04-04T10:54:56;102250.72;;;14.41;40.05
61394;BME280;48555;50.952;-0.120;2023-04-04T10:57:23;102240.50;;;14.22;38.81
61394;BME280;48555;50.952;-0.120;2023-04-04T11:00:02;102233.75;;;14.18;39.54
61394;BME280;48555;50.952;-0.120;2023-04-04T11:05:38;102223.25;;;14.04;40.88
61394;BME280;48555;50.952;-0.120;2023-04-04T11:08:17;102224.94;;;13.91;39.78
61394;BME280;48555;50.952;-0.120;2023-04-04T11:10:46;102228.53;;;13.90;40.18
61394;BME280;48555;50.952;-0.120;2023-04-04T11:13:19;102219.03;;;13.73;39.87
61394;BME280;48555;50.952;-0.120;2023-04-04T11:18:18;102211.34;;;13.70;42.33
61394;BME280;48555;50.952;-0.120;2023-04-04T11:20:46;102230.22;;;13.76;42.35
61394;BME280;48555;50.952;-0.120;2023-04-04T11:23:17;102220.53;;;13.91;42.74
61394;BME280;48555;50.952;-0.120;2023-04-04T11:25:56;102213.19;;;14.11;43.13
61394;BME280;48555;50.952;-0.120;2023-04-04T11:34:07;102207.09;;;14.51;43.39
61394;BME280;48555;50.952;-0.120;2023-04-04T11:39:08;102203.78;;;14.21;42.30
61394;BME280;48555;50.952;-0.120;2023-04-04T11:44:09;102205.59;;;14.06;41.00
61394;BME280;48555;50.952;-0.120;2023-04-04T11:46:35;102201.47;;;14.02;41.81
61394;BME280;48555;50.952;-0.120;2023-04-04T11:49:02;102197.97;;;14.16;42.27
61394;BME280;48555;50.952;-0.120;2023-04-04T11:51:28;102208.47;;;14.30;42.16
61394;BME280;48555;50.952;-0.120;2023-04-04T11:53:54;102196.91;;;14.32;41.47
61394;BME280;48555;50.952;-0.120;2023-04-04T11:56:19;102205.44;;;14.36;41.02
61394;BME280;48555;50.952;-0.120;2023-04-04T11:58:49;102190.72;;;14.46;41.17
61394;BME280;48555;50.952;-0.120;2023-04-04T12:01:15;102198.53;;;14.48;40.61
61394;BME280;48555;50.952;-0.120;2023-04-04T12:03:41;102194.59;;;14.41;40.18
61394;BME280;48555;50.952;-0.120;2023-04-04T12:06:06;102199.63;;;14.31;39.78
61394;BME280;48555;50.952;-0.120;2023-04-04T12:08:32;102204.69;;;14.34;40.13
61394;BME280;48555;50.952;-0.120;2023-04-04T12:11:03;102207.31;;;14.34;40.09
61394;BME280;48555;50.952;-0.120;2023-04-04T12:13:29;102190.75;;;14.32;39.59
61394;BME280;48555;50.952;-0.120;2023-04-04T12:15:55;102192.91;;;14.13;39.92
61394;BME280;48555;50.952;-0.120;2023-04-04T12:18:21;102186.41;;;14.18;40.56
61394;BME280;48555;50.952;-0.120;2023-04-04T12:20:49;102191.69;;;14.45;41.73
61394;BME280;48555;50.952;-0.120;2023-04-04T12:23:15;102188.22;;;14.72;42.15
61394;BME280;48555;50.952;-0.120;2023-04-04T12:25:40;102188.00;;;14.75;39.99
61394;BME280;48555;50.952;-0.120;2023-04-04T12:28:08;102184.63;;;14.73;40.04
61394;BME280;48555;50.952;-0.120;2023-04-04T12:30:36;102187.03;;;14.76;40.00
61394;BME280;48555;50.952;-0.120;2023-04-04T12:33:02;102179.81;;;14.80;39.87
61394;BME280;48555;50.952;-0.120;2023-04-04T12:35:28;102188.34;;;14.83;38.88
61394;BME280;48555;50.952;-0.120;2023-04-04T12:40:35;102187.06;;;14.49;38.72
61394;BME280;48555;50.952;-0.120;2023-04-04T12:43:15;102184.72;;;14.44;38.84
61394;BME280;48555;50.952;-0.120;2023-04-04T12:45:42;102197.34;;;14.39;38.09
61394;BME280;48555;50.952;-0.120;2023-04-04T12:48:10;102194.50;;;14.42;38.16
61394;BME280;48555;50.952;-0.120;2023-04-04T12:50:54;102181.31;;;14.57;38.43
61394;BME280;48555;50.952;-0.120;2023-04-04T12:53:22;102182.19;;;14.70;37.83
61394;BME280;48555;50.952;-0.120;2023-04-04T12:55:49;102185.06;;;14.80;38.10
61394;BME280;48555;50.952;-0.120;2023-04-04T12:58:23;102179.91;;;14.91;37.99
61394;BME280;48555;50.952;-0.120;2023-04-04T13:00:51;102172.66;;;14.94;37.81
61394;BME280;48555;50.952;-0.120;2023-04-04T13:03:19;102174.47;;;15.07;38.04
61394;BME280;48555;50.952;-0.120;2023-04-04T13:05:45;102174.25;;;15.22;38.87
61394;BME280;48555;50.952;-0.120;2023-04-04T13:08:11;102171.22;;;15.41;39.32
61394;BME280;48555;50.952;-0.120;2023-04-04T13:13:38;102162.53;;;15.52;38.05